sensor_id;sensor_type;location;lat;lon;timestamp;P1;durP1;ratioP1;P2;durP2;ratioP2
51260;SDS011;61705;46.228;24.812;2022-12-10T00:01:54;59.65;;;27.73;;
51260;SDS011;61705;46.228;24.812;2022-12-10T00:04:21;53.05;;;27.15;;
51260;SDS011;61705;46.228;24.812;2022-12-10T00:06:47;43.72;;;24.00;;
51260;SDS011;61705;46.228;24.812;2022-12-10T00:09:15;48.88;;;24.52;;
51260;SDS011;61705;46.228;24.812;2022-12-10T00:11:43;54.80;;;27.50;;
51260;SDS011;61705;46.228;24.812;2022-12-10T00:14:11;56.42;;;25.42;;
51260;SDS011;61705;46.228;24.812;2022-12-10T00:16:38;47.38;;;24.35;;
51260;SDS011;61705;46.228;24.812;2022-12-10T00:19:07;49.17;;;24.52;;
51260;SDS011;61705;46.228;24.812;2022-12-10T00:21:34;45.40;;;22.10;;
51260;SDS011;61705;46.228;24.812;2022-12-10T00:24:03;47.90;;;24.23;;
51260;SDS011;61705;46.228;24.812;2022-12-10T00:26:37;53.90;;;24.48;;
51260;SDS011;61705;46.228;24.812;2022-12-10T00:29:06;38.83;;;19.33;;
51260;SDS011;61705;46.228;24.812;2022-12-10T00:31:36;36.95;;;18.83;;
51260;SDS011;61705;46.228;24.812;2022-12-10T00:34:05;39.30;;;18.67;;
51260;SDS011;61705;46.228;24.812;2022-12-10T00:36:37;40.25;;;19.67;;
51260;SDS011;61705;46.228;24.812;2022-12-10T00:39:12;38.53;;;19.65;;
51260;SDS011;61705;46.228;24.812;2022-12-10T00:41:41;41.33;;;17.77;;
51260;SDS011;61705;46.228;24.812;2022-12-10T00:44:08;42.25;;;17.63;;
51260;SDS011;61705;46.228;24.812;2022-12-10T00:46:34;38.65;;;19.25;;
51260;SDS011;61705;46.228;24.812;2022-12-10T00:49:02;41.05;;;21.13;;
51260;SDS011;61705;46.228;24.812;2022-12-10T00:51:29;51.72;;;25.33;;
51260;SDS011;61705;46.228;24.812;2022-12-10T00:53:57;64.35;;;27.23;;
51260;SDS011;61705;46.228;24.812;2022-12-10T00:56:26;49.92;;;24.38;;
51260;SDS011;61705;46.228;24.812;2022-12-10T00:58:54;55.22;;;22.95;;
51260;SDS011;61705;46.228;24.812;2022-12-10T01:03:48;45.03;;;23.67;;
51260;SDS011;61705;46.228;24.812;2022-12-10T01:08:45;43.78;;;21.92;;
51260;SDS011;61705;46.228;24.812;2022-12-10T01:11:14;41.53;;;21.10;;
51260;SDS011;61705;46.228;24.812;2022-12-10T01:13:43;45.28;;;21.35;;
51260;SDS011;61705;46.228;24.812;2022-12-10T01:16:12;44.10;;;18.95;;
51260;SDS011;61705;46.228;24.812;2022-12-10T01:18:40;39.90;;;18.33;;
51260;SDS011;61705;46.228;24.812;2022-12-10T01:21:09;40.10;;;17.77;;
51260;SDS011;61705;46.228;24.812;2022-12-10T01:23:38;36.28;;;15.65;;
51260;SDS011;61705;46.228;24.812;2022-12-10T01:26:08;34.60;;;17.10;;
51260;SDS011;61705;46.228;24.812;2022-12-10T01:28:38;45.35;;;18.02;;
51260;SDS011;61705;46.228;24.812;2022-12-10T01:31:08;35.58;;;17.75;;
51260;SDS011;61705;46.228;24.812;2022-12-10T01:33:38;40.60;;;19.63;;
51260;SDS011;61705;46.228;24.812;2022-12-10T01:36:09;40.17;;;17.83;;
51260;SDS011;61705;46.228;24.812;2022-12-10T01:38:38;53.00;;;18.27;;
51260;SDS011;61705;46.228;24.812;2022-12-10T01:41:05;34.88;;;17.02;;
51260;SDS011;61705;46.228;24.812;2022-12-10T01:46:18;38.28;;;15.93;;
51260;SDS011;61705;46.228;24.812;2022-12-10T01:48:45;34.00;;;17.38;;
51260;SDS011;61705;46.228;24.812;2022-12-10T01:51:13;41.15;;;17.35;;
51260;SDS011;61705;46.228;24.812;2022-12-10T01:53:41;47.28;;;17.30;;
51260;SDS011;61705;46.228;24.812;2022-12-10T01:56:09;40.17;;;17.33;;
51260;SDS011;61705;46.228;24.812;2022-12-10T01:58:37;35.90;;;16.08;;
51260;SDS011;61705;46.228;24.812;2022-12-10T02:07:18;35.28;;;17.63;;
51260;SDS011;61705;46.228;24.812;2022-12-10T02:15:47;48.97;;;20.38;;
51260;SDS011;61705;46.228;24.812;2022-12-10T02:18:21;39.40;;;18.83;;
51260;SDS011;61705;46.228;24.812;2022-12-10T02:20:58;43.47;;;19.08;;
51260;SDS011;61705;46.228;24.812;2022-12-10T02:23:35;45.28;;;18.38;;
51260;SDS011;61705;46.228;24.812;2022-12-10T02:26:11;34.78;;;16.95;;
51260;SDS011;61705;46.228;24.812;2022-12-10T02:31:39;39.67;;;17.98;;
51260;SDS011;61705;46.228;24.812;2022-12-10T02:34:10;40.03;;;16.92;;
51260;SDS011;61705;46.228;24.812;2022-12-10T02:36:39;40.97;;;17.08;;
51260;SDS011;61705;46.228;24.812;2022-12-10T02:39:10;48.47;;;18.83;;
51260;SDS011;61705;46.228;24.812;2022-12-10T02:41:41;40.40;;;17.90;;
51260;SDS011;61705;46.228;24.812;2022-12-10T02:44:14;38.38;;;17.23;;
51260;SDS011;61705;46.228;24.812;2022-12-10T02:46:43;39.67;;;17.67;;
51260;SDS011;61705;46.228;24.812;2022-12-10T02:49:12;46.78;;;18.13;;
51260;SDS011;61705;46.228;24.812;2022-12-10T02:51:41;41.70;;;17.63;;
51260;SDS011;61705;46.228;24.812;2022-12-10T02:57:03;44.85;;;18.52;;
51260;SDS011;61705;46.228;24.812;2022-12-10T02:59:52;33.75;;;16.95;;
51260;SDS011;61705;46.228;24.812;2022-12-10T03:02:19;36.88;;;16.70;;
51260;SDS011;61705;46.228;24.812;2022-12-10T03:10:55;32.13;;;15.20;;
51260;SDS011;61705;46.228;24.812;2022-12-10T03:13:28;49.83;;;16.52;;
51260;SDS011;61705;46.228;24.812;2022-12-10T03:15:58;44.83;;;17.00;;
51260;SDS011;61705;46.228;24.812;2022-12-10T03:18:27;32.08;;;17.17;;
51260;SDS011;61705;46.228;24.812;2022-12-10T03:20:57;42.28;;;17.20;;
51260;SDS011;61705;46.228;24.812;2022-12-10T03:23:30;45.53;;;17.17;;
51260;SDS011;61705;46.228;24.812;2022-12-10T03:26:00;43.72;;;18.23;;
51260;SDS011;61705;46.228;24.812;2022-12-10T03:28:30;53.35;;;20.52;;
51260;SDS011;61705;46.228;24.812;2022-12-10T03:31:01;37.28;;;17.23;;
51260;SDS011;61705;46.228;24.812;2022-12-10T03:33:29;41.17;;;17.75;;
51260;SDS011;61705;46.228;24.812;2022-12-10T03:36:00;37.63;;;17.33;;
51260;SDS011;61705;46.228;24.812;2022-12-10T03:38:27;51.42;;;19.98;;
51260;SDS011;61705;46.228;24.812;2022-12-10T03:40:57;45.33;;;19.27;;
51260;SDS011;61705;46.228;24.812;2022-12-10T03:43:24;43.10;;;19.17;;
51260;SDS011;61705;46.228;24.812;2022-12-10T03:45:50;41.47;;;18.63;;
51260;SDS011;61705;46.228;24.812;2022-12-10T03:48:17;36.67;;;17.55;;
51260;SDS011;61705;46.228;24.812;2022-12-10T03:50:44;54.80;;;22.23;;
51260;SDS011;61705;46.228;24.812;2022-12-10T03:53:10;38.47;;;19.05;;
51260;SDS011;61705;46.228;24.812;2022-12-10T03:55:37;55.70;;;22.27;;
51260;SDS011;61705;46.228;24.812;2022-12-10T03:58:04;45.30;;;15.73;;
51260;SDS011;61705;46.228;24.812;2022-12-10T04:00:31;44.85;;;19.80;;
51260;SDS011;61705;46.228;24.812;2022-12-10T04:03:01;48.92;;;20.25;;
51260;SDS011;61705;46.228;24.812;2022-12-10T04:05:27;42.95;;;20.60;;
51260;SDS011;61705;46.228;24.812;2022-12-10T04:07:54;42.22;;;19.80;;
51260;SDS011;61705;46.228;24.812;2022-12-10T04:10:21;50.05;;;20.65;;
51260;SDS011;61705;46.228;24.812;2022-12-10T04:12:47;46.25;;;20.15;;
51260;SDS011;61705;46.228;24.812;2022-12-10T04:15:37;49.90;;;19.90;;
51260;SDS011;61705;46.228;24.812;2022-12-10T04:18:23;43.80;;;19.02;;
51260;SDS011;61705;46.228;24.812;2022-12-10T04:20:49;48.05;;;19.25;;
51260;SDS011;61705;46.228;24.812;2022-12-10T04:23:34;49.45;;;22.05;;
51260;SDS011;61705;46.228;24.812;2022-12-10T04:26:19;47.53;;;21.83;;
51260;SDS011;61705;46.228;24.812;2022-12-10T04:29:05;53.97;;;20.80;;
51260;SDS011;61705;46.228;24.812;2022-12-10T04:31:33;42.83;;;19.13;;
51260;SDS011;61705;46.228;24.812;2022-12-10T04:34:00;39.95;;;18.17;;
51260;SDS011;61705;46.228;24.812;2022-12-10T04:36:26;38.08;;;18.67;;
51260;SDS011;61705;46.228;24.812;2022-12-10T04:38:53;45.38;;;20.15;;
51260;SDS011;61705;46.228;24.812;2022-12-10T04:41:20;47.55;;;20.02;;
51260;SDS011;61705;46.228;24.812;2022-12-10T04:43:46;41.92;;;20.67;;
51260;SDS011;61705;46.228;24.812;2022-12-10T04:46:13;44.33;;;19.25;;
51260;SDS011;61705;46.228;24.812;2022-12-10T04:48:40;45.40;;;20.15;;
51260;SDS011;61705;46.228;24.812;2022-12-10T04:51:06;40.38;;;18.35;;
51260;SDS011;61705;46.228;24.812;2022-12-10T04:53:33;35.08;;;16.92;;
51260;SDS011;61705;46.228;24.812;2022-12-10T04:56:00;42.40;;;18.88;;
51260;SDS011;61705;46.228;24.812;2022-12-10T04:58:27;49.60;;;22.35;;
51260;SDS011;61705;46.228;24.812;2022-12-10T05:01:01;51.33;;;23.20;;
51260;SDS011;61705;46.228;24.812;2022-12-10T05:03:32;52.22;;;21.75;;
51260;SDS011;61705;46.228;24.812;2022-12-10T05:06:03;47.33;;;20.33;;
51260;SDS011;61705;46.228;24.812;2022-12-10T05:08:31;46.15;;;21.00;;
51260;SDS011;61705;46.228;24.812;2022-12-10T05:11:04;46.28;;;21.15;;
51260;SDS011;61705;46.228;24.812;2022-12-10T05:13:39;43.10;;;19.42;;
51260;SDS011;61705;46.228;24.812;2022-12-10T05:16:07;39.60;;;18.35;;
51260;SDS011;61705;46.228;24.812;2022-12-10T05:18:36;43.95;;;20.00;;
51260;SDS011;61705;46.228;24.812;2022-12-10T05:21:04;41.50;;;20.17;;
51260;SDS011;61705;46.228;24.812;2022-12-10T05:23:33;49.67;;;20.80;;
51260;SDS011;61705;46.228;24.812;2022-12-10T05:26:03;43.42;;;20.80;;
51260;SDS011;61705;46.228;24.812;2022-12-10T05:28:33;49.72;;;20.95;;
51260;SDS011;61705;46.228;24.812;2022-12-10T05:31:02;47.33;;;22.27;;
51260;SDS011;61705;46.228;24.812;2022-12-10T05:33:30;49.60;;;20.58;;
51260;SDS011;61705;46.228;24.812;2022-12-10T05:35:58;55.03;;;24.25;;
51260;SDS011;61705;46.228;24.812;2022-12-10T05:38:30;50.75;;;23.88;;
51260;SDS011;61705;46.228;24.812;2022-12-10T05:41:02;52.17;;;22.65;;
51260;SDS011;61705;46.228;24.812;2022-12-10T05:43:33;50.80;;;22.90;;
51260;SDS011;61705;46.228;24.812;2022-12-10T05:46:01;47.83;;;21.77;;
51260;SDS011;61705;46.228;24.812;2022-12-10T05:48:28;45.50;;;20.52;;
51260;SDS011;61705;46.228;24.812;2022-12-10T05:50:55;49.08;;;21.40;;
51260;SDS011;61705;46.228;24.812;2022-12-10T05:53:31;47.42;;;21.35;;
51260;SDS011;61705;46.228;24.812;2022-12-10T05:56:02;52.72;;;22.67;;
51260;SDS011;61705;46.228;24.812;2022-12-10T05:58:30;52.58;;;21.92;;
51260;SDS011;61705;46.228;24.812;2022-12-10T06:00:57;47.50;;;21.33;;
51260;SDS011;61705;46.228;24.812;2022-12-10T06:03:26;57.00;;;21.58;;
51260;SDS011;61705;46.228;24.812;2022-12-10T06:05:54;51.83;;;21.65;;
51260;SDS011;61705;46.228;24.812;2022-12-10T06:08:20;53.22;;;24.20;;
51260;SDS011;61705;46.228;24.812;2022-12-10T06:10:47;49.30;;;21.38;;
51260;SDS011;61705;46.228;24.812;2022-12-10T06:13:14;50.17;;;22.27;;
51260;SDS011;61705;46.228;24.812;2022-12-10T06:15:51;64.28;;;27.45;;
51260;SDS011;61705;46.228;24.812;2022-12-10T06:18:30;52.92;;;22.50;;
51260;SDS011;61705;46.228;24.812;2022-12-10T06:21:05;52.50;;;21.35;;
51260;SDS011;61705;46.228;24.812;2022-12-10T06:23:37;50.50;;;21.50;;
51260;SDS011;61705;46.228;24.812;2022-12-10T06:26:20;51.35;;;19.58;;
51260;SDS011;61705;46.228;24.812;2022-12-10T06:28:49;55.70;;;23.42;;
51260;SDS011;61705;46.228;24.812;2022-12-10T06:31:16;51.47;;;22.42;;
51260;SDS011;61705;46.228;24.812;2022-12-10T06:33:46;47.80;;;21.02;;
51260;SDS011;61705;46.228;24.812;2022-12-10T06:36:17;54.55;;;22.05;;
51260;SDS011;61705;46.228;24.812;2022-12-10T06:38:52;46.22;;;21.08;;
51260;SDS011;61705;46.228;24.812;2022-12-10T06:41:18;44.08;;;20.23;;
51260;SDS011;61705;46.228;24.812;2022-12-10T06:43:47;56.00;;;22.95;;
51260;SDS011;61705;46.228;24.812;2022-12-10T06:46:15;72.97;;;28.00;;
51260;SDS011;61705;46.228;24.812;2022-12-10T06:48:43;117.15;;;46.35;;
51260;SDS011;61705;46.228;24.812;2022-12-10T06:51:10;74.78;;;30.40;;
51260;SDS011;61705;46.228;24.812;2022-12-10T06:53:38;88.03;;;33.40;;
51260;SDS011;61705;46.228;24.812;2022-12-10T06:56:06;58.22;;;25.15;;
51260;SDS011;61705;46.228;24.812;2022-12-10T06:58:34;65.13;;;30.90;;
51260;SDS011;61705;46.228;24.812;2022-12-10T07:01:05;66.32;;;25.60;;
51260;SDS011;61705;46.228;24.812;2022-12-10T07:03:36;54.70;;;25.58;;
51260;SDS011;61705;46.228;24.812;2022-12-10T07:06:03;56.30;;;23.13;;
51260;SDS011;61705;46.228;24.812;2022-12-10T07:08:33;56.45;;;24.30;;
51260;SDS011;61705;46.228;24.812;2022-12-10T07:11:03;52.38;;;23.65;;
51260;SDS011;61705;46.228;24.812;2022-12-10T07:13:31;51.97;;;24.58;;
51260;SDS011;61705;46.228;24.812;2022-12-10T07:15:58;57.65;;;24.20;;
51260;SDS011;61705;46.228;24.812;2022-12-10T07:18:25;56.60;;;23.08;;
51260;SDS011;61705;46.228;24.812;2022-12-10T07:20:52;59.75;;;25.08;;
51260;SDS011;61705;46.228;24.812;2022-12-10T07:23:19;66.07;;;26.92;;
51260;SDS011;61705;46.228;24.812;2022-12-10T07:25:45;74.30;;;30.15;;
51260;SDS011;61705;46.228;24.812;2022-12-10T07:28:12;70.22;;;30.20;;
51260;SDS011;61705;46.228;24.812;2022-12-10T07:30:39;59.05;;;26.20;;
51260;SDS011;61705;46.228;24.812;2022-12-10T07:33:06;60.28;;;25.23;;
51260;SDS011;61705;46.228;24.812;2022-12-10T07:35:32;52.30;;;26.67;;
51260;SDS011;61705;46.228;24.812;2022-12-10T07:37:59;66.25;;;32.90;;
51260;SDS011;61705;46.228;24.812;2022-12-10T07:40:26;72.63;;;31.02;;
51260;SDS011;61705;46.228;24.812;2022-12-10T07:42:52;59.28;;;27.60;;
51260;SDS011;61705;46.228;24.812;2022-12-10T07:45:19;63.10;;;29.10;;
51260;SDS011;61705;46.228;24.812;2022-12-10T07:47:46;87.65;;;38.55;;
51260;SDS011;61705;46.228;24.812;2022-12-10T07:50:13;58.35;;;26.08;;
51260;SDS011;61705;46.228;24.812;2022-12-10T07:52:39;54.40;;;25.48;;
51260;SDS011;61705;46.228;24.812;2022-12-10T07:55:06;55.97;;;24.30;;
51260;SDS011;61705;46.228;24.812;2022-12-10T07:57:33;57.35;;;25.23;;
51260;SDS011;61705;46.228;24.812;2022-12-10T07:59:59;54.05;;;24.60;;
51260;SDS011;61705;46.228;24.812;2022-12-10T08:02:26;58.08;;;26.45;;
51260;SDS011;61705;46.228;24.812;2022-12-10T08:04:53;49.30;;;22.25;;
51260;SDS011;61705;46.228;24.812;2022-12-10T08:07:19;54.92;;;24.80;;
51260;SDS011;61705;46.228;24.812;2022-12-10T08:09:46;52.00;;;27.77;;
51260;SDS011;61705;46.228;24.812;2022-12-10T08:12:12;55.67;;;25.60;;
51260;SDS011;61705;46.228;24.812;2022-12-10T08:14:39;55.10;;;24.83;;
51260;SDS011;61705;46.228;24.812;2022-12-10T08:17:06;63.72;;;30.02;;
51260;SDS011;61705;46.228;24.812;2022-12-10T08:19:33;56.70;;;27.70;;
51260;SDS011;61705;46.228;24.812;2022-12-10T08:21:59;60.88;;;29.77;;
51260;SDS011;61705;46.228;24.812;2022-12-10T08:24:26;75.10;;;31.67;;
51260;SDS011;61705;46.228;24.812;2022-12-10T08:26:53;50.83;;;26.05;;
51260;SDS011;61705;46.228;24.812;2022-12-10T08:29:19;52.58;;;26.25;;
51260;SDS011;61705;46.228;24.812;2022-12-10T08:31:46;46.75;;;24.85;;
51260;SDS011;61705;46.228;24.812;2022-12-10T08:34:13;48.22;;;24.90;;
51260;SDS011;61705;46.228;24.812;2022-12-10T08:36:42;58.60;;;27.40;;
51260;SDS011;61705;46.228;24.812;2022-12-10T08:39:10;53.17;;;25.25;;
51260;SDS011;61705;46.228;24.812;2022-12-10T08:41:41;58.33;;;24.70;;
51260;SDS011;61705;46.228;24.812;2022-12-10T08:44:10;53.47;;;26.05;;
51260;SDS011;61705;46.228;24.812;2022-12-10T08:46:37;82.70;;;34.65;;
51260;SDS011;61705;46.228;24.812;2022-12-10T08:49:04;59.28;;;26.50;;
51260;SDS011;61705;46.228;24.812;2022-12-10T08:51:33;55.63;;;23.75;;
51260;SDS011;61705;46.228;24.812;2022-12-10T08:53:59;74.00;;;31.10;;
51260;SDS011;61705;46.228;24.812;2022-12-10T08:56:26;52.63;;;25.63;;
51260;SDS011;61705;46.228;24.812;2022-12-10T08:58:53;52.17;;;24.38;;
51260;SDS011;61705;46.228;24.812;2022-12-10T09:01:19;50.67;;;25.42;;
51260;SDS011;61705;46.228;24.812;2022-12-10T09:03:46;55.17;;;27.10;;
51260;SDS011;61705;46.228;24.812;2022-12-10T09:06:14;53.42;;;27.77;;
51260;SDS011;61705;46.228;24.812;2022-12-10T09:08:45;68.28;;;32.10;;
51260;SDS011;61705;46.228;24.812;2022-12-10T09:13:45;49.50;;;24.35;;
51260;SDS011;61705;46.228;24.812;2022-12-10T09:16:12;49.30;;;25.38;;
51260;SDS011;61705;46.228;24.812;2022-12-10T09:18:39;47.15;;;23.00;;
51260;SDS011;61705;46.228;24.812;2022-12-10T09:21:06;50.92;;;24.75;;
51260;SDS011;61705;46.228;24.812;2022-12-10T09:23:34;49.25;;;24.23;;
51260;SDS011;61705;46.228;24.812;2022-12-10T09:26:01;56.80;;;25.67;;
51260;SDS011;61705;46.228;24.812;2022-12-10T09:28:32;58.65;;;27.95;;
51260;SDS011;61705;46.228;24.812;2022-12-10T09:30:59;47.90;;;25.25;;
51260;SDS011;61705;46.228;24.812;2022-12-10T09:33:27;51.97;;;26.92;;
51260;SDS011;61705;46.228;24.812;2022-12-10T09:35:54;52.88;;;25.98;;
51260;SDS011;61705;46.228;24.812;2022-12-10T09:38:21;59.72;;;28.13;;
51260;SDS011;61705;46.228;24.812;2022-12-10T09:40:57;55.92;;;28.25;;
51260;SDS011;61705;46.228;24.812;2022-12-10T09:52:00;123.43;;;62.63;;
51260;SDS011;61705;46.228;24.812;2022-12-10T09:54:31;83.03;;;41.28;;
51260;SDS011;61705;46.228;24.812;2022-12-10T09:57:21;95.47;;;46.78;;
51260;SDS011;61705;46.228;24.812;2022-12-10T09:59:52;64.80;;;36.20;;
51260;SDS011;61705;46.228;24.812;2022-12-10T10:04:50;76.57;;;39.05;;
51260;SDS011;61705;46.228;24.812;2022-12-10T10:07:23;78.47;;;37.05;;
51260;SDS011;61705;46.228;24.812;2022-12-10T10:09:55;74.63;;;38.90;;
51260;SDS011;61705;46.228;24.812;2022-12-10T10:12:26;85.38;;;40.47;;
51260;SDS011;61705;46.228;24.812;2022-12-10T10:14:54;76.32;;;41.10;;
51260;SDS011;61705;46.228;24.812;2022-12-10T10:17:31;78.38;;;40.63;;
51260;SDS011;61705;46.228;24.812;2022-12-10T10:20:02;81.30;;;41.22;;
51260;SDS011;61705;46.228;24.812;2022-12-10T10:22:30;77.22;;;36.33;;
51260;SDS011;61705;46.228;24.812;2022-12-10T10:24:57;64.75;;;34.63;;
51260;SDS011;61705;46.228;24.812;2022-12-10T10:27:26;66.00;;;33.97;;
51260;SDS011;61705;46.228;24.812;2022-12-10T10:29:56;62.38;;;33.83;;
51260;SDS011;61705;46.228;24.812;2022-12-10T10:33:07;76.05;;;39.78;;
51260;SDS011;61705;46.228;24.812;2022-12-10T10:35:22;114.75;;;52.25;;
51260;SDS011;61705;46.228;24.812;2022-12-10T10:37:50;67.47;;;33.85;;
51260;SDS011;61705;46.228;24.812;2022-12-10T10:40:32;68.70;;;37.58;;
51260;SDS011;61705;46.228;24.812;2022-12-10T10:42:59;79.78;;;36.90;;
51260;SDS011;61705;46.228;24.812;2022-12-10T10:45:38;81.22;;;37.65;;
51260;SDS011;61705;46.228;24.812;2022-12-10T10:48:19;70.68;;;34.35;;
51260;SDS011;61705;46.228;24.812;2022-12-10T10:50:49;78.15;;;40.10;;
51260;SDS011;61705;46.228;24.812;2022-12-10T10:53:31;60.22;;;30.80;;
51260;SDS011;61705;46.228;24.812;2022-12-10T10:56:06;54.75;;;28.02;;
51260;SDS011;61705;46.228;24.812;2022-12-10T10:58:35;55.30;;;30.17;;
51260;SDS011;61705;46.228;24.812;2022-12-10T11:01:10;62.50;;;32.30;;
51260;SDS011;61705;46.228;24.812;2022-12-10T11:03:37;100.72;;;47.38;;
51260;SDS011;61705;46.228;24.812;2022-12-10T11:06:13;65.88;;;32.97;;
51260;SDS011;61705;46.228;24.812;2022-12-10T11:08:41;65.38;;;31.65;;
51260;SDS011;61705;46.228;24.812;2022-12-10T11:11:19;63.63;;;31.10;;
51260;SDS011;61705;46.228;24.812;2022-12-10T11:13:48;64.35;;;34.42;;
51260;SDS011;61705;46.228;24.812;2022-12-10T11:19:00;70.65;;;34.80;;
51260;SDS011;61705;46.228;24.812;2022-12-10T11:21:32;67.93;;;33.90;;
51260;SDS011;61705;46.228;24.812;2022-12-10T11:24:00;66.80;;;33.05;;
51260;SDS011;61705;46.228;24.812;2022-12-10T11:29:47;55.58;;;28.80;;
51260;SDS011;61705;46.228;24.812;2022-12-10T11:32:32;72.40;;;32.05;;
51260;SDS011;61705;46.228;24.812;2022-12-10T11:40:33;52.20;;;25.25;;
51260;SDS011;61705;46.228;24.812;2022-12-10T11:43:15;58.50;;;27.92;;
51260;SDS011;61705;46.228;24.812;2022-12-10T12:00:31;70.68;;;35.55;;
51260;SDS011;61705;46.228;24.812;2022-12-10T12:05:19;82.63;;;44.80;;
51260;SDS011;61705;46.228;24.812;2022-12-10T12:10:47;68.75;;;33.67;;
51260;SDS011;61705;46.228;24.812;2022-12-10T12:16:26;70.60;;;35.97;;
51260;SDS011;61705;46.228;24.812;2022-12-10T12:19:08;80.07;;;38.85;;
51260;SDS011;61705;46.228;24.812;2022-12-10T12:21:36;72.10;;;34.65;;
51260;SDS011;61705;46.228;24.812;2022-12-10T12:24:06;72.70;;;34.88;;
51260;SDS011;61705;46.228;24.812;2022-12-10T12:26:50;65.35;;;33.10;;
51260;SDS011;61705;46.228;24.812;2022-12-10T12:29:26;69.25;;;34.05;;
51260;SDS011;61705;46.228;24.812;2022-12-10T12:32:04;64.55;;;32.70;;
51260;SDS011;61705;46.228;24.812;2022-12-10T12:34:54;76.20;;;35.38;;
51260;SDS011;61705;46.228;24.812;2022-12-10T12:37:29;59.40;;;30.85;;
51260;SDS011;61705;46.228;24.812;2022-12-10T12:40:09;58.90;;;29.83;;
51260;SDS011;61705;46.228;24.812;2022-12-10T12:45:32;57.65;;;27.83;;
51260;SDS011;61705;46.228;24.812;2022-12-10T12:48:13;57.60;;;29.75;;
51260;SDS011;61705;46.228;24.812;2022-12-10T12:53:48;59.65;;;28.85;;
51260;SDS011;61705;46.228;24.812;2022-12-10T13:13:40;77.55;;;36.30;;
51260;SDS011;61705;46.228;24.812;2022-12-10T13:24:19;54.55;;;29.15;;
51260;SDS011;61705;46.228;24.812;2022-12-10T13:35:57;50.25;;;27.00;;
51260;SDS011;61705;46.228;24.812;2022-12-10T13:38:38;55.03;;;28.15;;
51260;SDS011;61705;46.228;24.812;2022-12-10T13:41:07;52.33;;;26.33;;
51260;SDS011;61705;46.228;24.812;2022-12-10T13:43:53;57.05;;;27.65;;
51260;SDS011;61705;46.228;24.812;2022-12-10T13:46:51;54.58;;;29.23;;
51260;SDS011;61705;46.228;24.812;2022-12-10T13:49:28;51.60;;;27.13;;
51260;SDS011;61705;46.228;24.812;2022-12-10T13:52:03;56.25;;;28.95;;
51260;SDS011;61705;46.228;24.812;2022-12-10T14:06:00;41.70;;;19.10;;
51260;SDS011;61705;46.228;24.812;2022-12-10T14:08:36;42.92;;;21.80;;
51260;SDS011;61705;46.228;24.812;2022-12-10T14:11:29;51.90;;;23.90;;
51260;SDS011;61705;46.228;24.812;2022-12-10T14:14:47;44.40;;;22.77;;
51260;SDS011;61705;46.228;24.812;2022-12-10T14:17:24;55.17;;;27.42;;
51260;SDS011;61705;46.228;24.812;2022-12-10T14:19:58;51.72;;;24.98;;
51260;SDS011;61705;46.228;24.812;2022-12-10T14:22:33;49.17;;;24.83;;
51260;SDS011;61705;46.228;24.812;2022-12-10T14:25:47;46.22;;;22.20;;
51260;SDS011;61705;46.228;24.812;2022-12-10T14:28:17;50.55;;;25.58;;
51260;SDS011;61705;46.228;24.812;2022-12-10T14:30:47;47.53;;;25.73;;
51260;SDS011;61705;46.228;24.812;2022-12-10T14:33:16;49.40;;;25.33;;
51260;SDS011;61705;46.228;24.812;2022-12-10T14:35:49;45.60;;;24.55;;
51260;SDS011;61705;46.228;24.812;2022-12-10T14:38:20;48.22;;;25.88;;
51260;SDS011;61705;46.228;24.812;2022-12-10T14:41:00;41.42;;;19.58;;
51260;SDS011;61705;46.228;24.812;2022-12-10T14:43:38;38.50;;;19.95;;
51260;SDS011;61705;46.228;24.812;2022-12-10T14:46:12;37.88;;;20.55;;
51260;SDS011;61705;46.228;24.812;2022-12-10T14:48:41;38.78;;;20.30;;
51260;SDS011;61705;46.228;24.812;2022-12-10T14:51:13;52.92;;;23.38;;
51260;SDS011;61705;46.228;24.812;2022-12-10T14:53:42;55.97;;;29.57;;
51260;SDS011;61705;46.228;24.812;2022-12-10T14:56:10;66.97;;;33.25;;
51260;SDS011;61705;46.228;24.812;2022-12-10T14:58:48;52.85;;;27.83;;
51260;SDS011;61705;46.228;24.812;2022-12-10T15:01:27;50.45;;;26.23;;
51260;SDS011;61705;46.228;24.812;2022-12-10T15:03:58;48.20;;;25.48;;
51260;SDS011;61705;46.228;24.812;2022-12-10T15:06:27;49.60;;;25.23;;
51260;SDS011;61705;46.228;24.812;2022-12-10T15:08:55;48.65;;;25.05;;
51260;SDS011;61705;46.228;24.812;2022-12-10T15:11:23;44.30;;;22.15;;
51260;SDS011;61705;46.228;24.812;2022-12-10T15:13:53;36.10;;;19.35;;
51260;SDS011;61705;46.228;24.812;2022-12-10T15:16:30;40.83;;;19.50;;
51260;SDS011;61705;46.228;24.812;2022-12-10T15:22:15;43.22;;;23.00;;
51260;SDS011;61705;46.228;24.812;2022-12-10T15:24:45;45.20;;;22.20;;
51260;SDS011;61705;46.228;24.812;2022-12-10T15:29:46;52.28;;;23.30;;
51260;SDS011;61705;46.228;24.812;2022-12-10T15:32:26;43.15;;;23.58;;
51260;SDS011;61705;46.228;24.812;2022-12-10T15:34:55;58.65;;;29.15;;
51260;SDS011;61705;46.228;24.812;2022-12-10T15:37:26;62.70;;;28.45;;
51260;SDS011;61705;46.228;24.812;2022-12-10T15:39:58;69.40;;;31.00;;
51260;SDS011;61705;46.228;24.812;2022-12-10T15:48:10;48.88;;;25.55;;
51260;SDS011;61705;46.228;24.812;2022-12-10T15:50:39;58.97;;;28.02;;
51260;SDS011;61705;46.228;24.812;2022-12-10T15:53:10;50.15;;;25.45;;
51260;SDS011;61705;46.228;24.812;2022-12-10T15:55:39;51.38;;;25.60;;
51260;SDS011;61705;46.228;24.812;2022-12-10T15:58:15;50.78;;;27.42;;
51260;SDS011;61705;46.228;24.812;2022-12-10T16:00:42;52.83;;;27.00;;
51260;SDS011;61705;46.228;24.812;2022-12-10T16:03:14;50.75;;;26.30;;
51260;SDS011;61705;46.228;24.812;2022-12-10T16:05:42;49.15;;;25.15;;
51260;SDS011;61705;46.228;24.812;2022-12-10T16:11:21;43.42;;;22.63;;
51260;SDS011;61705;46.228;24.812;2022-12-10T16:13:49;44.35;;;22.73;;
51260;SDS011;61705;46.228;24.812;2022-12-10T16:16:19;53.58;;;25.80;;
51260;SDS011;61705;46.228;24.812;2022-12-10T16:18:46;65.15;;;33.22;;
51260;SDS011;61705;46.228;24.812;2022-12-10T16:21:13;84.75;;;43.10;;
51260;SDS011;61705;46.228;24.812;2022-12-10T16:23:40;162.45;;;84.40;;
51260;SDS011;61705;46.228;24.812;2022-12-10T16:26:14;90.68;;;48.75;;
51260;SDS011;61705;46.228;24.812;2022-12-10T16:28:44;113.88;;;59.45;;
51260;SDS011;61705;46.228;24.812;2022-12-10T16:31:14;98.50;;;49.78;;
51260;SDS011;61705;46.228;24.812;2022-12-10T16:33:43;73.32;;;37.15;;
51260;SDS011;61705;46.228;24.812;2022-12-10T16:36:10;66.05;;;33.58;;
51260;SDS011;61705;46.228;24.812;2022-12-10T16:38:38;59.95;;;33.92;;
51260;SDS011;61705;46.228;24.812;2022-12-10T16:41:09;77.75;;;37.08;;
51260;SDS011;61705;46.228;24.812;2022-12-10T16:43:47;72.38;;;38.22;;
51260;SDS011;61705;46.228;24.812;2022-12-10T16:46:14;70.55;;;34.80;;
51260;SDS011;61705;46.228;24.812;2022-12-10T16:48:41;71.18;;;36.17;;
51260;SDS011;61705;46.228;24.812;2022-12-10T16:51:29;70.10;;;36.10;;
51260;SDS011;61705;46.228;24.812;2022-12-10T16:53:57;48.88;;;24.15;;
51260;SDS011;61705;46.228;24.812;2022-12-10T16:56:24;54.60;;;26.27;;